Time;durP1;ratioP1;P1;durP2;ratioP2;P2;SDS_P1;SDS_P2;PMS_P1;PMS_P2;Temp;Humidity;BMP_temperature;BMP_pressure;BME280_temperature;BME280_humidity;BME280_pressure;Samples;Min_cycle;Max_cycle;Signal;HPM_P1;HPM_P2
2023/06/16 00:00:13;;;;;;;9.02;5.18;;;15.70;93.20;;;;;;5055587;28;20037;-75
2023/06/16 00:02:43;;;;;;;6.88;5.00;;;15.50;94.10;;;;;;5032042;28;20123;-75
2023/06/16 00:05:10;;;;;;;9.95;5.35;;;15.40;94.60;;;;;;5046190;28;20054;-75
2023/06/16 00:07:36;;;;;;;6.07;4.93;;;15.30;94.80;;;;;;5054783;28;20075;-75
2023/06/16 00:10:06;;;;;;;7.03;5.05;;;15.30;95.00;;;;;;5050470;28;20435;-75
2023/06/16 00:12:34;;;;;;;6.38;4.88;;;15.20;95.00;;;;;;5074319;28;20402;-75
2023/06/16 00:14:59;;;;;;;9.15;5.60;;;15.20;95.10;;;;;;5090250;27;20136;-76
2023/06/16 00:17:26;;;;;;;6.90;5.43;;;15.20;95.10;;;;;;5061882;28;20112;-76
2023/06/16 00:19:57;;;;;;;7.47;4.93;;;15.20;95.30;;;;;;5058957;28;20052;-75
2023/06/16 00:22:25;;;;;;;11.32;6.47;;;15.20;95.40;;;;;;5067360;28;20127;-75
2023/06/16 00:24:52;;;;;;;10.15;6.20;;;15.20;95.80;;;;;;5046057;28;20041;-75
2023/06/16 00:27:19;;;;;;;9.98;5.63;;;15.10;96.20;;;;;;5032474;28;20033;-75
2023/06/16 00:29:45;;;;;;;10.80;6.10;;;15.10;96.00;;;;;;5075754;28;20036;-75
2023/06/16 00:32:11;;;;;;;10.68;5.93;;;15.10;96.10;;;;;;5066651;28;20632;-75
2023/06/16 00:34:36;;;;;;;7.85;6.47;;;15.10;96.30;;;;;;5079147;28;20131;-75
2023/06/16 00:37:02;;;;;;;9.15;6.35;;;15.10;96.10;;;;;;5050753;28;20052;-75
2023/06/16 00:39:28;;;;;;;10.13;6.57;;;15.10;96.40;;;;;;5054225;28;20526;-75
2023/06/16 00:41:54;;;;;;;11.15;7.10;;;15.00;96.50;;;;;;5028767;28;20037;-76
2023/06/16 00:44:20;;;;;;;9.73;6.28;;;15.00;96.70;;;;;;5066369;28;20548;-75
2023/06/16 00:46:46;;;;;;;9.30;6.80;;;15.00;96.80;;;;;;5046143;28;20037;-75
2023/06/16 00:49:12;;;;;;;12.32;7.53;;;15.00;97.00;;;;;;5044974;28;20037;-75
2023/06/16 00:51:38;;;;;;;12.52;7.38;;;14.90;97.10;;;;;;5039021;28;20756;-75
2023/06/16 00:54:04;;;;;;;10.73;6.50;;;14.90;97.20;;;;;;5084664;28;20043;-75
2023/06/16 00:56:30;;;;;;;11.20;6.88;;;14.80;97.60;;;;;;5062870;28;20490;-76
2023/06/16 00:58:56;;;;;;;12.32;6.93;;;14.80;97.60;;;;;;5073404;28;20037;-75
2023/06/16 01:01:25;;;;;;;10.38;7.05;;;14.80;98.00;;;;;;5047043;28;20138;-75
2023/06/16 01:03:53;;;;;;;14.48;7.22;;;14.80;98.20;;;;;;5063674;28;20041;-75
2023/06/16 01:06:21;;;;;;;11.95;6.35;;;14.70;98.30;;;;;;5084686;28;20040;-75
2023/06/16 01:08:58;;;;;;;11.80;7.57;;;14.70;98.60;;;;;;5078467;28;20041;-76
2023/06/16 01:11:29;;;;;;;8.40;7.15;;;14.60;98.80;;;;;;5074615;28;20115;-76
2023/06/16 01:14:19;;;;;;;10.65;7.30;;;14.60;98.90;;;;;;5084933;28;20067;-75
2023/06/16 01:16:46;;;;;;;9.70;7.25;;;14.60;99.20;;;;;;5057435;28;20445;-76
2023/06/16 01:19:42;;;;;;;9.38;7.68;;;14.50;99.40;;;;;;5078427;28;20043;-76
2023/06/16 01:22:08;;;;;;;12.88;7.53;;;14.50;99.80;;;;;;5074261;28;20051;-75
2023/06/16 01:24:35;;;;;;;10.50;8.23;;;14.50;99.50;;;;;;5061142;28;20577;-75
2023/06/16 01:27:04;;;;;;;12.00;7.90;;;14.50;99.90;;;;;;5064392;28;20040;-75
2023/06/16 01:29:35;;;;;;;11.43;8.48;;;14.50;99.80;;;;;;5068892;28;20125;-75
2023/06/16 01:32:03;;;;;;;9.30;7.63;;;14.40;99.90;;;;;;5042981;28;20084;-75
2023/06/16 01:34:29;;;;;;;9.48;7.43;;;14.40;99.80;;;;;;5093479;27;20112;-75
2023/06/16 01:36:56;;;;;;;11.65;7.72;;;14.50;99.90;;;;;;5074000;28;20599;-75
2023/06/16 01:39:22;;;;;;;11.00;8.07;;;14.50;99.90;;;;;;5032187;28;20051;-75
2023/06/16 01:41:49;;;;;;;9.20;7.25;;;14.40;99.90;;;;;;5066138;28;20077;-75
2023/06/16 01:44:16;;;;;;;13.32;7.72;;;14.40;99.90;;;;;;5069119;28;20728;-76
2023/06/16 01:46:43;;;;;;;8.02;7.03;;;14.40;99.90;;;;;;5045405;28;20041;-75
2023/06/16 01:49:09;;;;;;;9.00;6.95;;;14.40;99.80;;;;;;5068343;28;20040;-76
2023/06/16 01:51:36;;;;;;;8.73;6.85;;;14.40;99.90;;;;;;5048395;28;20124;-75
2023/06/16 01:54:01;;;;;;;8.82;6.90;;;14.40;99.90;;;;;;5117925;27;20082;-76
2023/06/16 01:56:30;;;;;;;10.77;6.80;;;14.30;99.90;;;;;;5073626;28;20116;-76
2023/06/16 01:58:56;;;;;;;10.60;6.85;;;14.30;99.90;;;;;;5052012;28;20490;-75
2023/06/16 02:01:33;;;;;;;11.30;6.30;;;14.30;99.90;;;;;;5102079;28;20064;-76
2023/06/16 02:04:09;;;;;;;10.88;6.57;;;14.30;99.90;;;;;;5072371;28;20822;-75
2023/06/16 02:07:02;;;;;;;9.00;6.40;;;14.30;99.90;;;;;;5053302;28;20033;-75
2023/06/16 02:09:30;;;;;;;8.35;6.90;;;14.20;99.90;;;;;;5060938;28;20530;-76
2023/06/16 02:11:57;;;;;;;10.32;7.38;;;14.20;99.90;;;;;;5064407;28;20037;-76
2023/06/16 02:14:22;;;;;;;9.70;6.55;;;14.20;99.90;;;;;;5063361;28;20044;-76
2023/06/16 02:16:51;;;;;;;7.30;6.47;;;14.20;99.90;;;;;;5057844;28;20128;-75
2023/06/16 02:19:16;;;;;;;7.30;6.57;;;14.10;99.90;;;;;;5079427;28;20037;-76
2023/06/16 02:21:43;;;;;;;8.73;6.13;;;14.10;99.90;;;;;;5067023;28;21329;-76
2023/06/16 02:24:09;;;;;;;9.77;6.78;;;14.10;99.90;;;;;;5046501;28;20111;-75
2023/06/16 02:26:35;;;;;;;7.95;6.50;;;14.10;99.90;;;;;;5070667;28;20104;-75
2023/06/16 02:29:02;;;;;;;17.50;6.72;;;14.10;99.90;;;;;;5062109;28;20040;-76
2023/06/16 02:31:27;;;;;;;9.57;6.35;;;14.00;99.90;;;;;;5058767;28;20044;-76
2023/06/16 02:33:54;;;;;;;10.13;7.32;;;14.00;99.90;;;;;;5070793;28;20045;-76
2023/06/16 02:36:20;;;;;;;9.68;8.30;;;14.00;99.90;;;;;;5098988;27;20036;-76
2023/06/16 02:38:46;;;;;;;12.55;8.98;;;14.00;99.90;;;;;;5049244;28;20058;-75
2023/06/16 02:41:12;;;;;;;11.15;8.32;;;13.90;99.90;;;;;;5040805;28;20029;-76
2023/06/16 02:43:38;;;;;;;14.18;8.48;;;14.00;99.90;;;;;;5073660;28;20037;-76
2023/06/16 02:46:05;;;;;;;14.93;9.30;;;14.00;99.90;;;;;;5047845;28;20163;-76
2023/06/16 02:48:31;;;;;;;15.05;10.57;;;14.00;99.90;;;;;;5064043;28;20058;-76
2023/06/16 02:50:57;;;;;;;11.80;9.27;;;14.00;99.90;;;;;;5040710;28;20406;-75
2023/06/16 02:53:24;;;;;;;14.75;9.13;;;13.90;99.90;;;;;;5044157;28;20045;-76
2023/06/16 02:55:51;;;;;;;12.77;9.65;;;13.90;99.90;;;;;;5056132;28;20041;-76
2023/06/16 02:58:18;;;;;;;14.43;10.05;;;13.90;99.90;;;;;;5060337;28;20033;-76
2023/06/16 03:00:44;;;;;;;12.98;9.90;;;13.90;99.90;;;;;;5090549;27;20123;-76
2023/06/16 03:03:09;;;;;;;16.55;10.15;;;13.90;99.90;;;;;;5062755;28;20163;-76
2023/06/16 03:05:36;;;;;;;16.70;11.20;;;13.90;99.90;;;;;;5057808;28;20040;-76
2023/06/16 03:08:02;;;;;;;12.63;10.43;;;13.90;99.90;;;;;;5055277;28;20037;-76
2023/06/16 03:10:28;;;;;;;15.80;9.55;;;13.90;99.90;;;;;;5049047;28;20201;-76
2023/06/16 03:12:53;;;;;;;12.85;9.82;;;13.90;99.90;;;;;;5059076;28;20116;-76
2023/06/16 03:15:19;;;;;;;11.27;9.25;;;13.90;99.90;;;;;;5061643;28;20043;-76
2023/06/16 03:17:47;;;;;;;14.02;10.23;;;13.80;99.90;;;;;;5061795;28;20049;-76
2023/06/16 03:20:13;;;;;;;15.95;10.15;;;13.80;99.90;;;;;;5065989;28;20405;-76
2023/06/16 03:22:38;;;;;;;16.67;10.10;;;13.80;99.90;;;;;;5045607;28;20045;-75
2023/06/16 03:25:04;;;;;;;12.68;9.60;;;13.80;99.90;;;;;;5053274;28;20508;-76
2023/06/16 03:27:30;;;;;;;13.88;9.75;;;13.80;99.90;;;;;;5062676;28;20303;-76
2023/06/16 03:29:56;;;;;;;13.38;9.52;;;13.90;99.90;;;;;;5092320;27;20438;-76
2023/06/16 03:32:22;;;;;;;15.35;9.18;;;13.90;99.90;;;;;;5044331;28;20067;-76
2023/06/16 03:34:48;;;;;;;11.57;9.15;;;13.90;99.90;;;;;;5037867;28;20075;-76
2023/06/16 03:37:15;;;;;;;15.95;10.02;;;13.90;99.90;;;;;;5060215;28;20131;-77
2023/06/16 03:39:41;;;;;;;14.43;10.05;;;13.90;99.90;;;;;;5046251;28;20067;-76
2023/06/16 03:42:07;;;;;;;13.32;9.98;;;13.90;99.90;;;;;;5046863;28;20064;-76
2023/06/16 03:44:32;;;;;;;11.75;9.63;;;13.90;99.90;;;;;;5067556;28;20037;-77
2023/06/16 03:46:58;;;;;;;11.82;9.75;;;13.90;99.90;;;;;;5038028;28;21692;-76
2023/06/16 03:49:24;;;;;;;11.77;9.40;;;13.90;99.90;;;;;;5066025;28;20040;-76
2023/06/16 03:51:50;;;;;;;14.40;8.63;;;13.80;99.90;;;;;;5060093;28;20036;-76
2023/06/16 03:54:17;;;;;;;15.93;10.13;;;13.80;99.90;;;;;;5044667;28;20429;-76
2023/06/16 03:56:43;;;;;;;12.68;8.38;;;13.80;99.90;;;;;;5024169;28;20071;-77
2023/06/16 03:59:09;;;;;;;11.80;9.30;;;13.80;99.90;;;;;;5058425;28;20041;-76
2023/06/16 04:01:39;;;;;;;10.60;8.18;;;13.90;99.90;;;;;;5063957;28;20045;-76
2023/06/16 04:04:07;;;;;;;11.85;9.18;;;13.90;99.90;;;;;;5058472;28;20048;-76
2023/06/16 04:06:36;;;;;;;16.00;9.07;;;13.90;99.90;;;;;;5053643;28;20039;-76
2023/06/16 04:09:02;;;;;;;12.88;9.35;;;13.90;99.90;;;;;;5076254;28;20044;-76
2023/06/16 04:11:29;;;;;;;12.13;10.05;;;13.90;99.90;;;;;;5029944;28;20036;-76
2023/06/16 04:13:54;;;;;;;14.35;9.43;;;13.90;99.90;;;;;;5029550;28;20119;-76
2023/06/16 04:16:20;;;;;;;14.95;9.77;;;14.00;99.90;;;;;;5046803;28;20124;-77
2023/06/16 04:18:48;;;;;;;11.73;9.55;;;14.00;99.90;;;;;;5045221;28;20044;-76
2023/06/16 04:21:17;;;;;;;12.50;9.45;;;14.00;99.90;;;;;;5063876;28;20032;-76
2023/06/16 04:23:43;;;;;;;11.25;9.38;;;14.00;99.90;;;;;;5056976;28;20032;-76
2023/06/16 04:26:08;;;;;;;11.80;9.52;;;14.00;99.90;;;;;;5040645;28;20044;-76
2023/06/16 04:28:44;;;;;;;11.55;9.00;;;14.00;99.90;;;;;;5074930;28;20393;-76
2023/06/16 04:31:11;;;;;;;12.98;10.00;;;14.10;99.90;;;;;;5047780;28;20087;-76
2023/06/16 04:33:41;;;;;;;12.07;9.10;;;14.10;99.90;;;;;;5062090;28;20068;-76
2023/06/16 04:36:07;;;;;;;13.63;9.30;;;14.10;99.90;;;;;;5057860;28;20170;-76
2023/06/16 04:38:33;;;;;;;13.38;9.90;;;14.20;99.90;;;;;;5047528;28;20043;-76
2023/06/16 04:40:59;;;;;;;12.50;9.82;;;14.20;99.90;;;;;;5013633;28;20033;-76
2023/06/16 04:43:24;;;;;;;13.63;9.80;;;14.20;99.90;;;;;;5054282;28;20055;-77
2023/06/16 04:45:50;;;;;;;11.35;8.43;;;14.30;99.90;;;;;;5059494;28;20037;-77
2023/06/16 04:48:16;;;;;;;12.63;8.45;;;14.30;99.90;;;;;;5063735;28;20048;-77
2023/06/16 04:50:42;;;;;;;12.48;8.68;;;14.30;99.90;;;;;;5070881;28;20036;-76
2023/06/16 04:53:08;;;;;;;9.38;8.35;;;14.40;99.90;;;;;;5045766;28;20037;-76
2023/06/16 04:55:33;;;;;;;11.45;9.18;;;14.40;99.90;;;;;;5037575;28;20068;-76
2023/06/16 04:57:59;;;;;;;13.23;9.15;;;14.50;99.90;;;;;;5036541;28;20071;-77
2023/06/16 05:00:27;;;;;;;10.48;7.97;;;14.50;99.90;;;;;;5061781;28;20055;-77
2023/06/16 05:02:53;;;;;;;10.65;8.82;;;14.50;99.90;;;;;;5067786;28;20049;-76
2023/06/16 05:05:20;;;;;;;14.18;9.63;;;14.50;99.90;;;;;;5057011;28;20029;-76
2023/06/16 05:07:45;;;;;;;11.77;8.80;;;14.60;99.90;;;;;;5045346;28;20033;-76
2023/06/16 05:10:11;;;;;;;14.55;10.00;;;14.70;99.90;;;;;;5089836;28;20037;-77
2023/06/16 05:12:37;;;;;;;13.82;8.88;;;14.70;99.90;;;;;;5048661;28;20032;-77
2023/06/16 05:15:03;;;;;;;12.43;10.15;;;14.80;99.90;;;;;;5044944;28;20126;-77
2023/06/16 05:17:29;;;;;;;12.93;9.40;;;14.80;99.90;;;;;;5059665;28;20048;-77
2023/06/16 05:19:54;;;;;;;13.70;10.07;;;14.90;99.90;;;;;;5069746;28;20033;-76
2023/06/16 05:22:23;;;;;;;14.82;9.05;;;14.90;99.90;;;;;;5045319;28;20044;-76
2023/06/16 05:24:53;;;;;;;14.57;10.48;;;14.90;99.90;;;;;;5054468;28;20067;-77
2023/06/16 05:27:22;;;;;;;11.40;9.50;;;14.90;99.90;;;;;;5045926;28;20090;-77
2023/06/16 05:29:50;;;;;;;11.82;9.98;;;15.00;99.90;;;;;;5040061;28;20402;-77
2023/06/16 05:32:16;;;;;;;15.30;10.40;;;15.10;99.90;;;;;;5046171;28;20084;-77
2023/06/16 05:34:41;;;;;;;16.85;10.65;;;15.10;99.90;;;;;;5060039;28;20082;-76
2023/06/16 05:37:07;;;;;;;13.38;10.63;;;15.20;99.90;;;;;;5047301;28;20040;-76
2023/06/16 05:39:32;;;;;;;15.20;10.07;;;15.20;99.90;;;;;;5036353;28;20696;-76
2023/06/16 05:41:58;;;;;;;12.45;10.02;;;15.30;99.90;;;;;;5099766;28;20077;-76
2023/06/16 05:44:24;;;;;;;13.48;9.73;;;15.40;99.90;;;;;;5051163;28;20417;-65
2023/06/16 05:46:49;;;;;;;13.95;10.90;;;15.50;99.90;;;;;;5042700;28;20062;-66
2023/06/16 05:49:15;;;;;;;11.73;10.23;;;15.60;99.90;;;;;;5062971;28;20122;-66
2023/06/16 05:51:41;;;;;;;11.70;9.75;;;15.70;99.90;;;;;;5064932;28;20044;-66
2023/06/16 05:54:06;;;;;;;14.95;11.20;;;15.80;99.90;;;;;;5045919;28;21453;-66
2023/06/16 05:56:32;;;;;;;13.25;10.02;;;15.90;99.90;;;;;;5063016;28;20032;-66
2023/06/16 05:58:58;;;;;;;12.77;10.50;;;15.90;99.90;;;;;;5065926;28;20095;-66
2023/06/16 06:01:23;;;;;;;13.15;10.68;;;16.00;99.90;;;;;;5065793;28;20056;-66
2023/06/16 06:03:49;;;;;;;17.45;10.75;;;16.10;99.90;;;;;;5087161;27;20040;-66
2023/06/16 06:06:15;;;;;;;15.82;11.30;;;16.20;99.90;;;;;;5070626;28;20044;-66
2023/06/16 06:08:40;;;;;;;13.55;11.00;;;16.30;99.90;;;;;;5069466;28;20052;-66
2023/06/16 06:11:06;;;;;;;18.17;12.02;;;16.30;99.90;;;;;;5062687;28;20040;-66
2023/06/16 06:13:33;;;;;;;13.07;10.95;;;16.50;99.90;;;;;;5069428;28;20082;-66
2023/06/16 06:15:58;;;;;;;13.50;11.52;;;16.50;99.90;;;;;;5072377;28;20032;-66
2023/06/16 06:18:24;;;;;;;13.43;11.95;;;16.70;99.90;;;;;;5064692;28;20033;-66
2023/06/16 06:20:50;;;;;;;19.52;11.73;;;16.80;99.90;;;;;;5062075;28;20040;-66
2023/06/16 06:23:16;;;;;;;12.27;10.98;;;16.80;99.90;;;;;;5066586;28;20028;-66
2023/06/16 06:25:42;;;;;;;15.98;11.10;;;16.90;99.90;;;;;;5079946;28;20082;-66
2023/06/16 06:28:08;;;;;;;13.25;11.50;;;17.10;99.90;;;;;;5056832;28;20855;-66
2023/06/16 06:30:35;;;;;;;14.35;11.23;;;17.20;99.90;;;;;;5061294;28;20047;-66
2023/06/16 06:33:01;;;;;;;12.75;10.85;;;17.20;99.90;;;;;;5050728;28;20083;-67
2023/06/16 06:35:27;;;;;;;16.95;9.75;;;17.30;99.90;;;;;;5051372;28;20040;-66
2023/06/16 06:37:53;;;;;;;14.73;10.88;;;17.40;99.90;;;;;;5051537;28;20038;-66
2023/06/16 06:40:18;;;;;;;11.65;9.55;;;17.50;99.90;;;;;;5067604;28;20048;-66
2023/06/16 06:42:44;;;;;;;12.18;9.40;;;17.70;99.90;;;;;;5072531;28;20071;-67
2023/06/16 06:45:11;;;;;;;10.95;9.20;;;17.80;99.90;;;;;;5093732;28;20059;-67
2023/06/16 06:47:37;;;;;;;10.73;8.50;;;17.80;99.90;;;;;;5070702;28;20071;-67
2023/06/16 06:50:03;;;;;;;12.23;9.93;;;17.90;99.90;;;;;;5059920;28;20107;-78
2023/06/16 06:52:29;;;;;;;11.15;9.95;;;18.00;99.90;;;;;;5070699;28;20517;-79
2023/06/16 06:54:56;;;;;;;12.55;9.63;;;18.10;99.90;;;;;;5061838;28;20443;-79
2023/06/16 06:57:22;;;;;;;11.85;9.18;;;18.30;99.90;;;;;;5104891;28;20520;-79
2023/06/16 06:59:49;;;;;;;9.68;8.60;;;18.40;99.90;;;;;;5070796;28;20118;-79
2023/06/16 07:02:16;;;;;;;13.25;9.40;;;18.50;99.90;;;;;;5070324;28;20087;-78
2023/06/16 07:04:43;;;;;;;13.15;9.68;;;18.70;99.90;;;;;;5103033;28;20494;-79
2023/06/16 07:07:09;;;;;;;12.68;9.73;;;18.90;99.90;;;;;;5069511;28;20116;-79
2023/06/16 07:09:35;;;;;;;10.85;8.57;;;18.90;99.90;;;;;;5100253;28;20107;-79
2023/06/16 07:12:02;;;;;;;9.82;8.15;;;19.00;99.90;;;;;;5080685;28;20147;-79
2023/06/16 07:14:29;;;;;;;10.77;8.45;;;19.20;99.90;;;;;;5070413;28;20104;-79
2023/06/16 07:16:57;;;;;;;9.45;8.15;;;19.30;99.90;;;;;;5052542;28;20078;-67
2023/06/16 07:19:26;;;;;;;10.70;8.73;;;19.40;99.90;;;;;;5070558;28;20043;-67
2023/06/16 07:21:56;;;;;;;9.93;7.32;;;19.70;99.90;;;;;;5061948;28;20112;-67
2023/06/16 07:24:22;;;;;;;8.98;7.47;;;19.90;99.90;;;;;;5066063;28;20493;-66
2023/06/16 07:26:48;;;;;;;7.95;6.57;;;20.00;99.90;;;;;;5077242;28;20037;-67
2023/06/16 07:29:14;;;;;;;8.70;6.65;;;20.20;99.90;;;;;;5071040;28;20047;-67
2023/06/16 07:31:39;;;;;;;8.85;6.88;;;20.40;99.90;;;;;;5070214;28;20457;-67
2023/06/16 07:34:05;;;;;;;10.98;7.18;;;20.40;99.90;;;;;;5047196;28;20047;-67
2023/06/16 07:36:32;;;;;;;9.65;6.97;;;20.60;99.90;;;;;;5098163;28;20132;-67
2023/06/16 07:38:58;;;;;;;6.82;6.18;;;20.70;99.90;;;;;;5103787;28;20048;-67
2023/06/16 07:41:23;;;;;;;8.77;6.35;;;20.80;99.90;;;;;;5052020;28;20086;-66
2023/06/16 07:43:49;;;;;;;7.30;6.32;;;21.00;99.90;;;;;;5070577;28;20041;-66
2023/06/16 07:46:17;;;;;;;7.75;6.85;;;21.30;99.90;;;;;;5068488;28;20060;-66
2023/06/16 07:48:43;;;;;;;12.23;7.40;;;21.30;99.90;;;;;;5100355;28;20094;-66
2023/06/16 07:51:08;;;;;;;7.20;6.50;;;21.40;99.60;;;;;;5070942;28;20040;-66
2023/06/16 07:53:34;;;;;;;12.93;6.72;;;21.30;98.90;;;;;;5071369;28;20389;-66
2023/06/16 07:56:02;;;;;;;7.43;6.43;;;21.30;98.60;;;;;;5071944;28;20038;-67
2023/06/16 07:58:28;;;;;;;8.30;6.65;;;21.30;98.50;;;;;;5070820;28;20036;-66
2023/06/16 08:00:53;;;;;;;7.80;6.72;;;21.50;98.60;;;;;;5063908;28;20059;-66
2023/06/16 08:03:19;;;;;;;9.57;5.90;;;21.60;98.00;;;;;;5061796;28;20494;-66
2023/06/16 08:05:45;;;;;;;9.30;6.35;;;21.50;97.50;;;;;;5069950;28;20041;-66
2023/06/16 08:08:11;;;;;;;8.73;6.40;;;21.60;97.60;;;;;;5070539;28;20040;-67
2023/06/16 08:10:37;;;;;;;8.18;7.10;;;21.80;97.50;;;;;;5063019;28;20111;-67
2023/06/16 08:13:02;;;;;;;9.25;6.53;;;21.90;96.80;;;;;;5069609;28;20670;-66
2023/06/16 08:15:28;;;;;;;8.65;6.50;;;22.10;97.20;;;;;;5069832;28;20044;-67
2023/06/16 08:17:54;;;;;;;7.28;6.43;;;22.30;97.20;;;;;;5066702;28;20036;-66
2023/06/16 08:20:20;;;;;;;11.43;7.00;;;22.40;96.70;;;;;;5060925;28;20051;-66
2023/06/16 08:22:46;;;;;;;8.00;6.20;;;22.40;96.50;;;;;;5069564;28;20042;-66
2023/06/16 08:25:12;;;;;;;6.75;6.05;;;22.50;96.20;;;;;;5068643;28;20288;-65
2023/06/16 08:27:39;;;;;;;12.73;5.78;;;22.60;95.90;;;;;;5066037;28;20048;-65
2023/06/16 08:30:05;;;;;;;8.02;5.60;;;22.80;95.70;;;;;;5062020;28;20125;-66
2023/06/16 08:32:31;;;;;;;7.75;6.90;;;22.90;95.30;;;;;;5063712;28;20063;-66
2023/06/16 08:34:56;;;;;;;6.53;5.72;;;23.00;94.70;;;;;;5064818;28;20044;-64
2023/06/16 08:37:23;;;;;;;6.43;5.55;;;23.00;94.70;;;;;;5061515;28;20050;-64
2023/06/16 08:39:48;;;;;;;6.97;5.10;;;23.20;94.70;;;;;;5062648;28;20096;-64
2023/06/16 08:42:17;;;;;;;6.93;4.97;;;23.20;94.40;;;;;;5060316;28;20036;-65
2023/06/16 08:44:43;;;;;;;6.07;5.47;;;23.50;94.30;;;;;;5062245;28;20777;-65
2023/06/16 08:47:09;;;;;;;8.00;6.03;;;23.50;93.50;;;;;;5063192;28;20116;-65
2023/06/16 08:49:36;;;;;;;7.63;5.15;;;23.60;92.50;;;;;;5044560;28;20128;-65
2023/06/16 08:52:08;;;;;;;8.27;5.20;;;23.50;92.80;;;;;;5061130;28;20101;-65
2023/06/16 08:54:47;;;;;;;8.65;5.50;;;23.80;92.70;;;;;;5053407;28;20072;-65
2023/06/16 08:57:14;;;;;;;8.65;4.70;;;23.80;92.40;;;;;;5057456;28;20036;-66
2023/06/16 08:59:44;;;;;;;9.48;5.63;;;23.80;92.20;;;;;;5058898;28;20041;-65
2023/06/16 09:02:11;;;;;;;6.00;5.20;;;23.90;92.10;;;;;;5065270;28;20087;-65
2023/06/16 09:04:37;;;;;;;8.23;5.70;;;23.90;91.30;;;;;;5067121;28;20531;-65
2023/06/16 09:07:03;;;;;;;5.80;5.20;;;23.90;90.80;;;;;;5061629;28;20505;-65
2023/06/16 09:09:29;;;;;;;15.13;5.53;;;23.90;91.20;;;;;;5061098;28;20119;-65
2023/06/16 09:12:08;;;;;;;8.30;4.97;;;24.10;91.70;;;;;;5054755;28;20048;-65
2023/06/16 09:14:38;;;;;;;7.50;5.20;;;24.30;91.20;;;;;;5063422;28;20101;-65
2023/06/16 09:17:07;;;;;;;6.85;6.00;;;24.40;91.10;;;;;;5064034;28;20125;-65
2023/06/16 09:19:47;;;;;;;6.45;5.15;;;24.60;91.00;;;;;;5056963;28;20482;-65
2023/06/16 09:22:16;;;;;;;8.75;5.53;;;24.60;90.40;;;;;;5058800;28;20079;-65
2023/06/16 09:24:42;;;;;;;6.55;5.40;;;24.70;89.00;;;;;;5057616;28;20055;-65
2023/06/16 09:27:08;;;;;;;8.27;4.88;;;24.90;89.50;;;;;;5056257;28;20029;-65
2023/06/16 09:29:36;;;;;;;6.13;4.82;;;25.10;90.10;;;;;;5057715;28;20386;-66
2023/06/16 09:32:09;;;;;;;5.50;4.90;;;25.20;88.70;;;;;;5058028;28;20036;-71
2023/06/16 09:34:36;;;;;;;6.53;4.80;;;25.20;88.30;;;;;;5087290;27;20488;-67
2023/06/16 09:37:10;;;;;;;6.43;5.10;;;25.20;87.80;;;;;;5092411;27;20044;-67
2023/06/16 09:39:36;;;;;;;6.03;5.07;;;25.20;87.00;;;;;;5098363;27;20076;-67
2023/06/16 09:42:02;;;;;;;14.18;5.53;;;25.30;87.90;;;;;;5053170;28;20066;-66
2023/06/16 09:44:31;;;;;;;6.45;4.70;;;25.40;87.90;;;;;;5066437;28;20036;-67
2023/06/16 09:47:01;;;;;;;6.65;4.90;;;25.50;87.80;;;;;;5063301;28;20037;-68
2023/06/16 09:49:27;;;;;;;6.20;4.55;;;25.50;86.70;;;;;;5063256;28;20044;-68
2023/06/16 09:51:55;;;;;;;9.23;5.40;;;25.50;86.10;;;;;;5054088;28;20111;-67
2023/06/16 09:54:21;;;;;;;5.18;4.68;;;25.40;86.00;;;;;;5065669;28;20163;-68
2023/06/16 09:56:48;;;;;;;6.97;5.22;;;25.50;86.10;;;;;;5061160;28;20048;-70
2023/06/16 09:59:15;;;;;;;7.32;4.85;;;25.50;85.40;;;;;;5061559;28;20043;-69
2023/06/16 10:01:43;;;;;;;6.20;5.13;;;25.50;84.50;;;;;;5066861;28;20410;-69
2023/06/16 10:04:15;;;;;;;6.28;5.28;;;25.50;84.90;;;;;;5083514;28;20051;-68
2023/06/16 10:07:04;;;;;;;5.65;4.55;;;25.50;81.80;;;;;;5066368;28;20120;-66
2023/06/16 10:09:37;;;;;;;9.73;4.82;;;25.50;83.00;;;;;;5058955;28;20056;-67
2023/06/16 10:12:04;;;;;;;7.97;4.63;;;25.70;81.60;;;;;;5065891;28;20040;-67
2023/06/16 10:14:33;;;;;;;5.15;4.53;;;25.70;81.80;;;;;;5067464;28;20089;-66
2023/06/16 10:17:00;;;;;;;10.35;4.75;;;25.90;82.10;;;;;;5058481;28;20108;-67
2023/06/16 10:19:28;;;;;;;7.63;4.45;;;26.00;81.60;;;;;;5060081;28;20441;-70
2023/06/16 10:21:55;;;;;;;7.40;4.35;;;26.10;79.90;;;;;;5072778;28;20036;-67
2023/06/16 10:24:23;;;;;;;4.90;3.88;;;26.10;80.00;;;;;;5062200;28;20047;-67
2023/06/16 10:26:50;;;;;;;5.85;4.15;;;26.10;78.30;;;;;;5059830;28;20140;-67
2023/06/16 10:29:20;;;;;;;11.27;4.78;;;26.20;79.30;;;;;;5065727;28;20043;-67
2023/06/16 10:31:49;;;;;;;5.90;3.95;;;26.30;77.80;;;;;;5058899;28;20055;-67
2023/06/16 10:34:24;;;;;;;4.60;3.75;;;26.30;76.00;;;;;;5067721;28;20059;-67
2023/06/16 10:36:54;;;;;;;5.75;3.65;;;26.20;72.70;;;;;;5057505;28;20037;-67
2023/06/16 10:39:20;;;;;;;6.90;4.00;;;26.30;72.10;;;;;;5056272;28;20059;-67
2023/06/16 10:41:49;;;;;;;4.72;3.97;;;26.20;70.60;;;;;;5099896;27;20044;-67
2023/06/16 10:44:23;;;;;;;6.15;3.28;;;26.30;71.00;;;;;;5059841;28;20123;-67
2023/06/16 10:47:12;;;;;;;4.25;3.28;;;26.50;70.90;;;;;;5064167;28;20041;-67
2023/06/16 10:49:46;;;;;;;5.90;3.53;;;26.60;67.20;;;;;;5051638;28;20056;-70
2023/06/16 10:52:16;;;;;;;4.97;3.55;;;26.60;68.10;;;;;;5069746;28;20078;-70
2023/06/16 10:54:51;;;;;;;4.45;3.70;;;26.70;67.30;;;;;;5042214;28;20043;-67
2023/06/16 10:57:17;;;;;;;16.17;4.40;;;26.70;67.10;;;;;;5065576;28;20040;-67
2023/06/16 11:00:11;;;;;;;4.72;3.47;;;26.70;68.10;;;;;;5106434;27;20489;-68
2023/06/16 11:03:00;;;;;;;19.20;4.70;;;26.90;66.40;;;;;;5067598;28;20041;-68
2023/06/16 11:05:36;;;;;;;5.95;3.60;;;27.00;67.60;;;;;;5055637;28;20661;-67
2023/06/16 11:08:08;;;;;;;7.18;3.92;;;27.20;67.40;;;;;;5055868;28;20489;-67
2023/06/16 11:10:52;;;;;;;5.20;3.13;;;27.30;67.30;;;;;;5066956;28;20049;-67
2023/06/16 11:13:21;;;;;;;5.30;3.35;;;27.40;61.60;;;;;;5057232;28;20041;-67
2023/06/16 11:15:47;;;;;;;6.20;3.70;;;27.40;64.00;;;;;;5068544;28;20485;-67
2023/06/16 11:18:12;;;;;;;5.50;2.88;;;27.30;63.40;;;;;;5061564;28;20062;-67
2023/06/16 11:20:38;;;;;;;5.00;3.38;;;27.40;64.60;;;;;;5048903;28;20059;-68
2023/06/16 11:23:04;;;;;;;8.93;3.13;;;27.40;64.00;;;;;;5077242;28;20371;-68
2023/06/16 11:25:30;;;;;;;6.63;3.20;;;27.20;63.00;;;;;;5072547;28;20481;-68
2023/06/16 11:27:56;;;;;;;5.68;3.63;;;27.10;63.10;;;;;;5064536;28;20085;-68
2023/06/16 11:30:23;;;;;;;9.57;3.75;;;27.10;63.70;;;;;;5101379;27;20043;-67
2023/06/16 11:32:50;;;;;;;11.32;3.50;;;27.10;63.50;;;;;;5057909;28;20513;-66
2023/06/16 11:35:16;;;;;;;4.72;3.33;;;27.30;64.30;;;;;;5057277;28;20057;-68
2023/06/16 11:37:48;;;;;;;12.65;4.07;;;27.40;64.10;;;;;;5097561;27;20131;-68
2023/06/16 11:40:18;;;;;;;;;;;27.30;64.20;;;;;;5047887;28;20036;-68
2023/06/16 11:42:43;;;;;;;4.32;3.20;;;27.20;64.00;;;;;;5072211;28;19924;-68
2023/06/16 11:45:09;;;;;;;21.38;4.03;;;27.30;64.30;;;;;;5056451;28;20048;-71
2023/06/16 11:47:35;;;;;;;4.40;3.35;;;27.50;65.00;;;;;;5065280;28;20032;-68
2023/06/16 11:50:05;;;;;;;4.80;3.15;;;27.40;64.90;;;;;;5063970;28;20037;-68
2023/06/16 11:52:31;;;;;;;12.35;3.95;;;27.50;64.20;;;;;;5068581;28;20091;-68
2023/06/16 11:55:00;;;;;;;7.97;3.10;;;27.60;64.70;;;;;;5049937;28;20036;-69
2023/06/16 11:57:26;;;;;;;74.00;9.77;;;27.60;63.80;;;;;;5062045;28;20032;-70
2023/06/16 11:59:52;;;;;;;43.70;8.65;;;27.70;64.40;;;;;;5052708;28;20523;-69
2023/06/16 12:02:17;;;;;;;106.38;12.65;;;27.70;65.90;;;;;;5041571;28;20811;-69
2023/06/16 12:04:44;;;;;;;40.30;6.70;;;27.60;63.10;;;;;;5056311;28;20119;-69
2023/06/16 12:07:10;;;;;;;46.13;5.72;;;27.40;64.10;;;;;;5047839;28;20120;-69
2023/06/16 12:09:37;;;;;;;16.02;5.07;;;27.30;64.40;;;;;;5039560;28;20123;-69
2023/06/16 12:12:07;;;;;;;34.38;9.23;;;27.50;64.20;;;;;;5053492;28;20040;-70
2023/06/16 12:14:37;;;;;;;25.88;4.55;;;27.40;65.40;;;;;;5064067;28;20573;-69
2023/06/16 12:17:03;;;;;;;7.93;3.63;;;27.30;63.40;;;;;;5093043;27;20182;-69
2023/06/16 12:19:29;;;;;;;35.15;5.93;;;27.30;64.50;;;;;;5061340;28;20036;-70
2023/06/16 12:22:02;;;;;;;187.07;15.52;;;27.30;63.90;;;;;;5032295;28;20036;-71
2023/06/16 12:24:29;;;;;;;6.15;4.00;;;27.40;64.60;;;;;;5055182;28;20137;-69
2023/06/16 12:26:55;;;;;;;5.55;3.85;;;27.30;64.40;;;;;;5071807;28;20028;-69
2023/06/16 12:29:25;;;;;;;14.88;8.73;;;27.40;64.30;;;;;;5060412;28;20730;-70
2023/06/16 12:31:58;;;;;;;89.60;73.95;;;27.60;65.20;;;;;;5047088;28;20068;-70
2023/06/16 12:34:33;;;;;;;15.18;4.60;;;27.70;64.50;;;;;;5032430;28;20037;-77
2023/06/16 12:37:07;;;;;;;5.78;3.38;;;27.70;64.30;;;;;;5065022;28;20063;-77
2023/06/16 12:39:37;;;;;;;12.18;3.65;;;27.70;63.50;;;;;;5061167;28;20040;-76
2023/06/16 12:42:04;;;;;;;8.13;3.75;;;27.70;61.40;;;;;;5054193;28;20171;-76